createdAt,value
2018-04-18T00:00:59.208Z,13.17
2018-04-18T00:03:26.681Z,14.73
2018-04-18T00:05:54.118Z,17.00
2018-04-18T00:08:21.579Z,13.10
2018-04-18T00:10:49.824Z,13.80
2018-04-18T00:13:17.293Z,20.73
2018-04-18T00:15:44.751Z,12.17
2018-04-18T00:18:12.214Z,14.20
2018-04-18T00:20:40.433Z,13.53
2018-04-18T00:23:08.643Z,15.67
2018-04-18T00:25:36.105Z,14.90
2018-04-18T00:28:03.572Z,13.40
2018-04-18T00:30:31.029Z,14.57
2018-04-18T00:32:58.513Z,13.53
2018-04-18T00:35:26.728Z,13.93
2018-04-18T00:37:54.188Z,16.57
2018-04-18T00:40:21.658Z,14.00
2018-04-18T00:42:49.894Z,15.10
2018-04-18T00:45:17.352Z,16.07
2018-04-18T00:50:20.312Z,17.23
2018-04-18T00:52:47.769Z,17.77
2018-04-18T00:55:15.234Z,15.80
2018-04-18T00:57:42.691Z,14.10
2018-04-18T01:00:10.143Z,14.53
2018-04-18T01:02:37.603Z,14.73
2018-04-18T01:05:05.057Z,15.13
2018-04-18T01:07:32.516Z,15.80
2018-04-18T01:10:00.008Z,17.17
2018-04-18T01:12:27.463Z,16.70
2018-04-18T01:14:54.918Z,15.57
2018-04-18T01:17:22.359Z,15.97
2018-04-18T01:19:49.834Z,16.13
2018-04-18T01:22:17.275Z,14.20
2018-04-18T01:24:44.734Z,16.33
2018-04-18T01:27:12.182Z,15.67
2018-04-18T01:29:39.662Z,16.07
2018-04-18T01:32:07.094Z,18.07
2018-04-18T01:34:34.562Z,15.10
2018-04-18T01:37:02.017Z,18.30
2018-04-18T01:39:30.246Z,14.77
2018-04-18T01:41:57.699Z,15.37
2018-04-18T01:44:25.187Z,16.33
2018-04-18T01:46:52.653Z,16.93
2018-04-18T01:49:36.810Z,14.73
2018-04-18T01:52:04.253Z,15.97
2018-04-18T01:54:31.722Z,17.13
2018-04-18T01:56:59.231Z,16.70
2018-04-18T01:59:26.720Z,14.87
2018-04-18T02:01:54.953Z,15.33
2018-04-18T02:04:22.397Z,16.20
2018-04-18T02:06:49.874Z,16.97
2018-04-18T02:09:17.335Z,20.30
2018-04-18T02:11:44.778Z,15.70
2018-04-18T02:14:12.244Z,16.90
2018-04-18T02:16:39.708Z,16.50
2018-04-18T02:19:07.171Z,16.10
2018-04-18T02:21:34.620Z,17.57
2018-04-18T02:24:02.858Z,16.23
2018-04-18T02:26:30.314Z,15.50
2018-04-18T02:28:57.804Z,17.30
2018-04-18T02:31:25.241Z,16.80
2018-04-18T02:33:52.717Z,16.43
2018-04-18T02:36:20.173Z,17.63
2018-04-18T02:38:48.404Z,18.17
2018-04-18T02:41:15.875Z,17.13
2018-04-18T02:43:43.342Z,17.85
2018-04-18T02:46:10.818Z,18.23
2018-04-18T02:48:38.287Z,19.10
2018-04-18T02:51:05.746Z,19.93
2018-04-18T02:53:33.194Z,19.57
2018-04-18T02:56:01.423Z,20.43
2018-04-18T02:58:28.890Z,22.10
2018-04-18T03:00:57.116Z,20.97
2018-04-18T03:03:24.566Z,20.27
2018-04-18T03:05:52.037Z,21.87
2018-04-18T03:08:20.262Z,22.63
2018-04-18T03:10:47.743Z,20.90
2018-04-18T03:13:15.999Z,23.77
2018-04-18T03:15:44.215Z,22.10
2018-04-18T03:18:11.675Z,22.90
2018-04-18T03:20:39.128Z,23.77
2018-04-18T03:23:06.580Z,23.23
2018-04-18T03:25:34.041Z,22.70
2018-04-18T03:28:01.495Z,21.80
2018-04-18T03:30:28.957Z,20.97
2018-04-18T03:32:56.415Z,22.67
2018-04-18T03:35:23.874Z,21.97
2018-04-18T03:37:51.322Z,22.67
2018-04-18T03:40:18.779Z,23.47
2018-04-18T03:42:46.247Z,25.90
2018-04-18T03:45:13.702Z,25.17
2018-04-18T03:47:41.163Z,22.48
2018-04-18T03:50:08.623Z,24.02
2018-04-18T03:52:36.852Z,28.67
2018-04-18T03:55:04.339Z,26.08
2018-04-18T03:57:31.800Z,24.67
2018-04-18T03:59:59.863Z,22.87
2018-04-18T04:02:28.125Z,23.40
2018-04-18T04:04:56.348Z,23.50
2018-04-18T04:07:24.571Z,22.87
2018-04-18T04:09:52.041Z,28.08
2018-04-18T04:12:19.506Z,23.55
2018-04-18T04:14:47.034Z,23.57
2018-04-18T04:17:26.215Z,24.80
2018-04-18T04:20:05.563Z,25.90
2018-04-18T04:22:44.873Z,25.83
2018-04-18T04:25:12.325Z,30.02
2018-04-18T04:27:39.773Z,25.17
2018-04-18T04:30:07.242Z,25.62
2018-04-18T04:32:34.894Z,29.83
2018-04-18T04:35:02.354Z,29.47
2018-04-18T04:37:29.793Z,26.42
2018-04-18T04:39:58.098Z,29.85
2018-04-18T04:42:25.567Z,35.10
2018-04-18T04:44:53.083Z,28.30
2018-04-18T04:47:20.470Z,30.50
2018-04-18T04:49:48.707Z,30.65
2018-04-18T04:52:16.181Z,30.27
2018-04-18T04:54:44.407Z,27.52
2018-04-18T04:57:11.871Z,32.33
2018-04-18T04:59:39.370Z,28.67
2018-04-18T05:02:06.835Z,32.45
2018-04-18T05:04:34.289Z,31.37
2018-04-18T05:07:01.754Z,37.80
2018-04-18T05:09:29.371Z,38.08
2018-04-18T05:11:56.821Z,34.78
2018-04-18T05:14:24.299Z,37.00
2018-04-18T05:16:52.548Z,31.70
2018-04-18T05:19:20.766Z,28.43
2018-04-18T05:21:48.233Z,29.13
2018-04-18T05:24:15.698Z,31.65
2018-04-18T05:26:43.191Z,29.63
2018-04-18T05:29:10.645Z,30.43
2018-04-18T05:31:38.162Z,33.13
2018-04-18T05:34:05.624Z,33.33
2018-04-18T05:36:33.086Z,34.70
2018-04-18T05:39:00.583Z,32.13
2018-04-18T05:41:28.108Z,28.57
2018-04-18T05:43:55.597Z,31.20
2018-04-18T05:46:23.837Z,32.63
2018-04-18T05:48:51.329Z,31.70
2018-04-18T05:51:19.185Z,31.07
2018-04-18T05:53:46.632Z,38.27
2018-04-18T05:56:14.086Z,30.63
2018-04-18T05:58:41.948Z,30.37
2018-04-18T06:01:09.406Z,28.33
2018-04-18T06:03:36.854Z,29.87
2018-04-18T06:06:04.369Z,28.50
2018-04-18T06:08:31.869Z,26.77
2018-04-18T06:10:59.332Z,28.37
2018-04-18T06:13:26.791Z,30.67
2018-04-18T06:15:54.243Z,28.57
2018-04-18T06:18:21.703Z,29.20
2018-04-18T06:20:49.149Z,28.97
2018-04-18T06:23:16.607Z,29.17
2018-04-18T06:25:44.061Z,29.23
2018-04-18T06:28:12.280Z,28.07
2018-04-18T06:30:40.368Z,28.10
2018-04-18T06:33:07.837Z,33.70
2018-04-18T06:35:36.111Z,27.27
2018-04-18T06:38:03.601Z,28.80
2018-04-18T06:40:31.128Z,26.57
2018-04-18T06:42:58.591Z,26.20
2018-04-18T06:45:26.882Z,28.53
2018-04-18T06:47:54.335Z,27.43
2018-04-18T06:50:22.582Z,23.33
2018-04-18T06:52:50.044Z,22.83
2018-04-18T06:55:17.514Z,22.33
2018-04-18T06:57:44.985Z,22.60
2018-04-18T07:00:12.413Z,22.17
2018-04-18T07:02:39.874Z,21.83
2018-04-18T07:05:07.359Z,21.33
2018-04-18T07:07:35.636Z,19.23
2018-04-18T07:10:03.100Z,20.67
2018-04-18T07:12:31.007Z,21.53
2018-04-18T07:14:59.220Z,23.43
2018-04-18T07:17:26.701Z,23.97
2018-04-18T07:19:54.131Z,22.43
2018-04-18T07:22:21.603Z,22.37
2018-04-18T07:24:49.898Z,20.10
2018-04-18T07:27:17.352Z,20.30
2018-04-18T07:29:44.803Z,20.80
2018-04-18T07:32:12.278Z,21.40
2018-04-18T07:34:40.503Z,20.80
2018-04-18T07:37:07.965Z,19.00
2018-04-18T07:39:35.421Z,19.97
2018-04-18T07:42:02.883Z,20.33
2018-04-18T07:44:30.359Z,19.77
2018-04-18T07:46:57.827Z,19.47
2018-04-18T07:49:25.282Z,19.97
2018-04-18T07:51:52.788Z,20.70
2018-04-18T07:54:20.262Z,22.57
2018-04-18T07:56:47.717Z,19.70
2018-04-18T07:59:15.206Z,21.30
2018-04-18T08:01:42.656Z,20.63
2018-04-18T08:04:10.118Z,20.80
2018-04-18T08:06:37.664Z,20.13
2018-04-18T08:09:05.137Z,21.13
2018-04-18T08:11:32.586Z,19.00
2018-04-18T08:14:00.052Z,17.87
2018-04-18T08:16:27.510Z,18.20
2018-04-18T08:18:54.960Z,19.03
2018-04-18T08:21:22.416Z,19.10
2018-04-18T08:23:49.858Z,18.23
2018-04-18T08:26:17.334Z,17.37
2018-04-18T08:28:44.774Z,18.37
2018-04-18T08:31:12.239Z,18.17
2018-04-18T08:33:39.706Z,17.97
2018-04-18T08:36:07.170Z,18.20
2018-04-18T08:38:34.621Z,15.93
2018-04-18T08:41:02.079Z,18.13
2018-04-18T08:43:30.326Z,17.60
2018-04-18T08:45:57.800Z,17.23
2018-04-18T08:48:25.246Z,15.57
2018-04-18T08:50:52.723Z,18.57
2018-04-18T08:53:20.175Z,17.40
2018-04-18T08:55:47.619Z,18.00
2018-04-18T08:58:15.078Z,15.43
2018-04-18T09:00:42.588Z,14.80
2018-04-18T09:03:10.822Z,15.90
2018-04-18T09:05:38.285Z,15.90
2018-04-18T09:08:05.742Z,17.10
2018-04-18T09:10:33.180Z,15.43
2018-04-18T09:13:00.637Z,15.40
2018-04-18T09:15:28.098Z,16.80
2018-04-18T09:17:55.555Z,13.47
2018-04-18T09:20:23.843Z,14.37
2018-04-18T09:22:51.298Z,15.57
2018-04-18T09:25:18.751Z,15.90
2018-04-18T09:27:46.231Z,13.80
2018-04-18T09:30:13.743Z,15.00
2018-04-18T09:32:41.225Z,14.10
2018-04-18T09:35:08.683Z,12.90
2018-04-18T09:37:36.142Z,12.30
2018-04-18T09:40:04.408Z,9.33
2018-04-18T09:42:31.878Z,8.77
2018-04-18T09:44:59.815Z,7.93
2018-04-18T09:47:28.024Z,6.90
2018-04-18T09:49:55.532Z,8.50
2018-04-18T09:52:23.753Z,11.10
2018-04-18T09:54:52.015Z,11.37
2018-04-18T09:57:19.467Z,8.80
2018-04-18T09:59:46.944Z,9.63
2018-04-18T10:02:18.396Z,8.63
2018-04-18T10:04:46.431Z,11.10
2018-04-18T10:07:14.643Z,11.00
2018-04-18T10:09:42.905Z,9.97
2018-04-18T10:12:10.379Z,13.30
2018-04-18T10:14:37.900Z,9.77
2018-04-18T10:17:05.391Z,10.30
2018-04-18T10:19:32.857Z,10.80
2018-04-18T10:22:00.310Z,9.67
2018-04-18T10:24:27.763Z,10.33
2018-04-18T10:26:55.268Z,10.97
2018-04-18T10:29:23.485Z,12.57
2018-04-18T10:31:50.989Z,9.20
2018-04-18T10:34:18.469Z,9.10
2018-04-18T10:36:45.942Z,9.70
2018-04-18T10:39:14.626Z,10.13
2018-04-18T10:41:42.818Z,9.30
2018-04-18T10:44:10.275Z,11.10
2018-04-18T10:46:38.499Z,9.40
2018-04-18T10:49:05.992Z,10.47
2018-04-18T10:51:33.445Z,9.43
2018-04-18T10:54:00.947Z,9.00
2018-04-18T10:56:29.437Z,7.73
2018-04-18T10:58:56.898Z,10.40
2018-04-18T11:01:24.355Z,10.60
2018-04-18T11:03:52.586Z,8.57
2018-04-18T11:06:20.047Z,8.77
2018-04-18T11:08:47.506Z,8.77
2018-04-18T11:11:15.718Z,9.67
2018-04-18T11:13:43.189Z,8.17
2018-04-18T11:16:10.628Z,7.37
2018-04-18T11:18:38.107Z,6.77
2018-04-18T11:21:06.315Z,8.03
2018-04-18T11:23:33.818Z,8.30
2018-04-18T11:26:03.032Z,10.00
2018-04-18T11:28:30.523Z,10.30
2018-04-18T11:30:57.951Z,7.63
2018-04-18T11:33:25.442Z,8.70
2018-04-18T11:35:52.888Z,10.33
2018-04-18T11:38:20.351Z,11.30
2018-04-18T11:40:47.810Z,10.80
2018-04-18T11:43:15.278Z,8.60
2018-04-18T11:45:42.728Z,8.27
2018-04-18T11:48:10.183Z,6.23
2018-04-18T11:50:38.399Z,8.87
2018-04-18T11:53:06.614Z,9.90
2018-04-18T11:55:34.071Z,10.00
2018-04-18T11:58:01.555Z,11.83
2018-04-18T12:00:29.001Z,7.40
2018-04-18T12:02:56.514Z,9.80
2018-04-18T12:05:24.039Z,11.20
2018-04-18T12:07:51.542Z,10.33
2018-04-18T12:10:19.035Z,8.87
2018-04-18T12:12:46.489Z,13.77
2018-04-18T12:15:13.952Z,13.60
2018-04-18T12:17:41.408Z,11.37
2018-04-18T12:20:08.865Z,8.00
2018-04-18T12:22:36.302Z,10.93
2018-04-18T12:25:03.742Z,10.47
2018-04-18T12:27:31.201Z,11.37
2018-04-18T12:29:59.661Z,10.80
2018-04-18T12:32:27.903Z,10.30
2018-04-18T12:34:55.953Z,8.73
2018-04-18T12:37:23.407Z,10.80
2018-04-18T12:39:50.858Z,9.87
2018-04-18T12:42:18.369Z,10.43
2018-04-18T12:44:45.829Z,10.33
2018-04-18T12:47:13.295Z,12.47
2018-04-18T12:49:41.509Z,12.47
2018-04-18T12:52:08.950Z,11.00
2018-04-18T12:54:36.422Z,11.87
2018-04-18T12:57:03.862Z,10.70
2018-04-18T12:59:31.336Z,10.20
2018-04-18T13:01:59.562Z,11.60
2018-04-18T13:04:27.044Z,12.27
2018-04-18T13:06:55.272Z,10.40
2018-04-18T13:09:22.763Z,14.47
2018-04-18T13:11:50.209Z,9.30
2018-04-18T13:14:17.662Z,8.83
2018-04-18T13:16:45.099Z,9.70
2018-04-18T13:19:12.609Z,8.07
2018-04-18T13:21:40.064Z,8.87
2018-04-18T13:24:08.266Z,9.63
2018-04-18T13:26:35.729Z,10.47
2018-04-18T13:29:03.182Z,8.93
2018-04-18T13:31:30.629Z,9.60
2018-04-18T13:33:58.088Z,11.37
2018-04-18T13:36:25.572Z,9.33
2018-04-18T13:38:53.102Z,10.40
2018-04-18T13:41:20.557Z,11.07
2018-04-18T13:43:48.019Z,10.60
2018-04-18T13:46:15.477Z,9.20
2018-04-18T13:48:42.947Z,11.43
2018-04-18T13:51:10.392Z,10.17
2018-04-18T13:53:37.853Z,10.40
2018-04-18T13:56:05.346Z,10.77
2018-04-18T13:58:32.783Z,9.53
2018-04-18T14:01:00.230Z,8.27
2018-04-18T14:03:27.676Z,12.10
2018-04-18T14:05:55.137Z,10.53
2018-04-18T14:08:23.456Z,9.73
2018-04-18T14:10:50.916Z,10.33
2018-04-18T14:13:18.447Z,10.37
2018-04-18T14:15:45.878Z,10.90
2018-04-18T14:18:13.378Z,11.23
2018-04-18T14:20:40.833Z,10.60
2018-04-18T14:23:09.051Z,13.47
2018-04-18T14:25:36.571Z,11.90
2018-04-18T14:28:04.038Z,10.57
2018-04-18T14:30:31.519Z,9.13
2018-04-18T14:32:59.054Z,8.60
2018-04-18T14:35:26.503Z,8.27
2018-04-18T14:37:54.733Z,7.30
2018-04-18T14:40:22.205Z,9.40
2018-04-18T14:42:50.455Z,10.50
2018-04-18T14:45:17.911Z,8.77
2018-04-18T14:47:46.133Z,10.33
2018-04-18T14:50:13.602Z,9.50
2018-04-18T14:52:41.059Z,8.07
2018-04-18T14:55:09.267Z,7.03
2018-04-18T14:57:36.755Z,8.10
2018-04-18T15:00:04.204Z,8.50
2018-04-18T15:02:32.414Z,9.47
2018-04-18T15:04:59.858Z,9.10
2018-04-18T15:07:27.323Z,10.03
2018-04-18T15:09:54.783Z,9.27
2018-04-18T15:12:22.284Z,11.70
2018-04-18T15:14:49.740Z,9.70
2018-04-18T15:17:17.199Z,11.00
2018-04-18T15:19:44.657Z,10.20
2018-04-18T15:22:12.375Z,9.83
2018-04-18T15:24:39.831Z,12.43
2018-04-18T15:27:07.291Z,9.93
2018-04-18T15:29:34.742Z,9.43
2018-04-18T15:32:02.988Z,15.03
2018-04-18T15:34:30.439Z,10.57
2018-04-18T15:36:57.883Z,9.20
2018-04-18T15:39:25.343Z,9.43
2018-04-18T15:41:53.584Z,10.13
2018-04-18T15:44:21.055Z,10.37
2018-04-18T15:46:48.984Z,10.17
2018-04-18T15:49:16.418Z,11.57
2018-04-18T15:51:43.867Z,10.97
2018-04-18T15:54:11.324Z,9.20
2018-04-18T15:56:38.767Z,10.50
2018-04-18T15:59:06.222Z,8.80
2018-04-18T16:01:33.667Z,9.23
2018-04-18T16:04:01.124Z,9.53
2018-04-18T16:06:28.590Z,10.53
2018-04-18T16:08:56.045Z,9.67
2018-04-18T16:11:23.511Z,10.40
2018-04-18T16:13:50.967Z,8.83
2018-04-18T16:16:19.177Z,10.43
2018-04-18T16:18:46.614Z,10.77
2018-04-18T16:21:14.069Z,11.93
2018-04-18T16:23:41.505Z,10.60
2018-04-18T16:26:09.646Z,12.13
2018-04-18T16:28:37.142Z,14.60
2018-04-18T16:31:04.610Z,10.83
2018-04-18T16:33:32.073Z,12.23
2018-04-18T16:35:59.545Z,11.00
2018-04-18T16:38:27.071Z,11.60
2018-04-18T16:40:54.999Z,12.00
2018-04-18T16:43:22.454Z,12.97
2018-04-18T16:45:49.975Z,13.03
2018-04-18T16:48:17.438Z,12.80
2018-04-18T16:50:45.013Z,11.37
2018-04-18T16:53:12.458Z,14.33
2018-04-18T16:55:39.945Z,13.37
2018-04-18T16:58:07.397Z,12.77
2018-04-18T17:00:34.858Z,12.00
2018-04-18T17:03:02.336Z,12.00
2018-04-18T17:05:29.781Z,11.40
2018-04-18T17:07:57.238Z,12.03
2018-04-18T17:10:24.702Z,11.77
2018-04-18T17:12:52.151Z,11.57
2018-04-18T17:15:20.386Z,11.93
2018-04-18T17:17:47.843Z,10.83
2018-04-18T17:20:15.300Z,9.97
2018-04-18T17:22:43.514Z,13.27
2018-04-18T17:25:11.089Z,11.03
2018-04-18T17:27:38.541Z,11.73
2018-04-18T17:30:05.998Z,11.97
2018-04-18T17:32:33.461Z,12.10
2018-04-18T17:35:00.915Z,13.30
2018-04-18T17:37:28.375Z,12.27
2018-04-18T17:39:55.847Z,10.87
2018-04-18T17:42:23.284Z,10.37
2018-04-18T17:44:50.770Z,11.20
2018-04-18T17:47:19.206Z,9.57
2018-04-18T17:49:47.443Z,11.07
2018-04-18T17:52:15.064Z,9.33
2018-04-18T17:54:42.571Z,10.90
2018-04-18T17:57:10.813Z,11.33
2018-04-18T17:59:39.092Z,13.13
2018-04-18T18:02:06.561Z,11.73
2018-04-18T18:04:34.052Z,11.77
2018-04-18T18:07:01.533Z,12.70
2018-04-18T18:09:28.987Z,12.67
2018-04-18T18:11:56.430Z,11.70
2018-04-18T18:14:23.902Z,11.10
2018-04-18T18:16:51.381Z,12.10
2018-04-18T18:19:18.870Z,11.80
2018-04-18T18:21:46.325Z,13.27
2018-04-18T18:24:13.783Z,12.13
2018-04-18T18:26:41.270Z,13.03
2018-04-18T18:29:10.474Z,12.60
2018-04-18T18:31:37.999Z,14.33
2018-04-18T18:34:05.412Z,12.53
2018-04-18T18:36:32.862Z,14.70
2018-04-18T18:39:00.318Z,11.77
2018-04-18T18:41:28.556Z,12.83
2018-04-18T18:43:56.927Z,12.17
2018-04-18T18:46:24.405Z,12.60
2018-04-18T18:48:51.854Z,11.87
2018-04-18T18:51:19.334Z,12.60
2018-04-18T18:53:46.779Z,11.20
2018-04-18T18:56:14.234Z,13.03
2018-04-18T18:58:41.708Z,12.10
2018-04-18T19:01:09.919Z,13.20
2018-04-18T19:03:37.384Z,17.00
2018-04-18T19:06:04.862Z,12.23
2018-04-18T19:08:33.066Z,11.70
2018-04-18T19:11:00.531Z,11.80
2018-04-18T19:13:28.019Z,13.53
2018-04-18T19:15:55.463Z,12.13
2018-04-18T19:18:22.895Z,14.20
2018-04-18T19:20:50.346Z,12.80
2018-04-18T19:23:17.811Z,14.57
2018-04-18T19:25:45.313Z,12.57
2018-04-18T19:28:12.769Z,15.73
2018-04-18T19:30:40.239Z,13.70
2018-04-18T19:33:07.736Z,15.23
2018-04-18T19:35:35.203Z,14.07
2018-04-18T19:38:02.666Z,13.27
2018-04-18T19:40:30.368Z,13.80
2018-04-18T19:42:57.852Z,14.40
2018-04-18T19:45:25.340Z,14.23
2018-04-18T19:47:52.798Z,13.70
2018-04-18T19:50:20.243Z,13.60
2018-04-18T19:52:48.459Z,14.40
2018-04-18T19:55:15.947Z,13.77
2018-04-18T19:57:43.435Z,20.23
2018-04-18T20:00:10.890Z,20.10
2018-04-18T20:02:38.346Z,14.20
2018-04-18T20:05:05.853Z,13.83
2018-04-18T20:07:33.264Z,15.50
2018-04-18T20:10:00.708Z,14.20
2018-04-18T20:12:28.936Z,15.37
2018-04-18T20:14:56.417Z,15.07
2018-04-18T20:17:24.647Z,13.27
2018-04-18T20:19:52.098Z,14.30
2018-04-18T20:22:19.563Z,13.70
2018-04-18T20:24:47.789Z,15.20
2018-04-18T20:27:15.281Z,13.73
2018-04-18T20:29:42.747Z,13.47
2018-04-18T20:32:10.221Z,15.40
2018-04-18T20:34:37.650Z,14.60
2018-04-18T20:37:05.110Z,16.17
2018-04-18T20:39:32.580Z,13.07
2018-04-18T20:42:00.811Z,15.57
2018-04-18T20:44:28.286Z,14.03
2018-04-18T20:46:56.505Z,17.47
2018-04-18T20:49:24.747Z,14.00
2018-04-18T20:51:52.210Z,14.50
2018-04-18T20:54:19.678Z,16.40
2018-04-18T20:56:47.154Z,16.13
2018-04-18T20:59:14.618Z,14.33
2018-04-18T21:01:42.076Z,16.30
2018-04-18T21:04:09.532Z,14.20
2018-04-18T21:06:37.018Z,16.63
2018-04-18T21:09:05.372Z,17.83
2018-04-18T21:11:33.669Z,16.40
2018-04-18T21:14:01.057Z,46.90
2018-04-18T21:16:28.580Z,20.77
2018-04-18T21:18:56.043Z,50.60
2018-04-18T21:21:23.528Z,24.97
2018-04-18T21:23:50.985Z,22.27
2018-04-18T21:26:18.442Z,16.17
2018-04-18T21:28:45.920Z,17.50
2018-04-18T21:31:13.418Z,16.27
2018-04-18T21:33:40.874Z,15.10
2018-04-18T21:36:08.331Z,14.90
2018-04-18T21:38:35.806Z,16.57
2018-04-18T21:41:04.047Z,15.67
2018-04-18T21:43:31.530Z,14.80
2018-04-18T21:45:58.980Z,18.23
2018-04-18T21:48:26.441Z,14.43
2018-04-18T21:50:54.316Z,16.80
2018-04-18T21:53:21.764Z,15.67
2018-04-18T21:55:49.268Z,15.67
2018-04-18T21:58:16.723Z,16.60
2018-04-18T22:00:44.211Z,15.37
2018-04-18T22:03:11.672Z,33.63
2018-04-18T22:05:39.889Z,17.83
2018-04-18T22:08:08.137Z,18.00
2018-04-18T22:10:35.596Z,16.60
2018-04-18T22:13:03.112Z,18.47
2018-04-18T22:15:30.543Z,20.77
2018-04-18T22:17:57.996Z,18.07
2018-04-18T22:20:25.438Z,20.00
2018-04-18T22:22:52.898Z,17.17
2018-04-18T22:25:20.352Z,17.70
2018-04-18T22:27:47.813Z,16.80
2018-04-18T22:30:15.281Z,17.43
2018-04-18T22:32:43.484Z,16.70
2018-04-18T22:35:10.935Z,16.40
2018-04-18T22:37:38.396Z,19.57
2018-04-18T22:40:05.861Z,19.47
2018-04-18T22:42:34.092Z,18.30
2018-04-18T22:45:01.540Z,17.57
2018-04-18T22:47:28.993Z,18.70
2018-04-18T22:49:56.514Z,17.77
2018-04-18T22:52:23.935Z,18.77
2018-04-18T22:54:51.391Z,20.67
2018-04-18T22:57:18.867Z,17.67
2018-04-18T22:59:46.319Z,20.13
2018-04-18T23:02:13.762Z,21.80
2018-04-18T23:04:41.968Z,21.00
2018-04-18T23:07:09.434Z,16.73
2018-04-18T23:09:36.917Z,16.43
2018-04-18T23:12:05.146Z,17.13
2018-04-18T23:14:32.596Z,18.27
2018-04-18T23:17:00.123Z,17.13
2018-04-18T23:19:27.581Z,20.70
2018-04-18T23:21:55.025Z,19.53
2018-04-18T23:24:22.482Z,21.00
2018-04-18T23:26:49.945Z,17.10
2018-04-18T23:29:17.411Z,19.87
2018-04-18T23:31:44.857Z,18.27
2018-04-18T23:34:12.342Z,19.83
2018-04-18T23:36:39.813Z,18.10
2018-04-18T23:39:08.037Z,17.87
2018-04-18T23:41:35.505Z,17.80
2018-04-18T23:44:03.731Z,18.83
2018-04-18T23:46:31.185Z,16.87
2018-04-18T23:48:58.658Z,18.17
2018-04-18T23:51:26.082Z,19.50
2018-04-18T23:53:53.539Z,18.00
2018-04-18T23:56:21.000Z,20.07
2018-04-18T23:58:48.461Z,18.53
